Time;durP1;ratioP1;P1;durP2;ratioP2;P2;SDS_P1;SDS_P2;PMS_P1;PMS_P2;Temp;Humidity;BMP_temperature;BMP_pressure;BME280_temperature;BME280_humidity;BME280_pressure;Samples;Min_cycle;Max_cycle;Signal;HPM_P1;HPM_P2
2023/04/08 00:00:58;;;;;;;8.90;6.00;;;5.80;99.90;;;;;;5032511;28;20301;-84
2023/04/08 00:03:23;;;;;;;10.43;6.00;;;5.80;99.90;;;;;;5033349;28;20301;-82
2023/04/08 00:05:49;;;;;;;11.50;7.37;;;5.70;99.90;;;;;;5033759;28;20212;-84
2023/04/08 00:08:15;;;;;;;9.90;6.07;;;5.70;99.90;;;;;;5033908;28;20179;-84
2023/04/08 00:10:40;;;;;;;8.90;5.57;;;5.70;99.90;;;;;;5033501;28;20661;-84
2023/04/08 00:13:06;;;;;;;9.53;5.80;;;5.70;99.90;;;;;;5033643;28;20644;-84
2023/04/08 00:15:32;;;;;;;9.57;6.30;;;5.70;99.90;;;;;;5032419;28;20185;-85
2023/04/08 00:17:57;;;;;;;11.40;6.20;;;5.70;99.90;;;;;;5032621;28;20523;-84
2023/04/08 00:20:24;;;;;;;9.57;5.97;;;5.60;99.90;;;;;;5033544;28;20182;-84
2023/04/08 00:22:50;;;;;;;10.87;5.50;;;5.60;99.90;;;;;;5033536;28;20181;-84
2023/04/08 00:25:15;;;;;;;8.37;5.60;;;5.60;99.90;;;;;;5033433;28;20179;-84
2023/04/08 00:27:41;;;;;;;8.77;5.67;;;5.50;99.90;;;;;;5033464;28;20178;-84
2023/04/08 00:30:07;;;;;;;8.93;6.37;;;5.50;99.90;;;;;;5033445;28;20206;-85
2023/04/08 00:32:33;;;;;;;9.57;6.63;;;5.60;99.90;;;;;;5035314;28;20593;-84
2023/04/08 00:34:59;;;;;;;13.40;6.63;;;5.60;99.90;;;;;;5036111;28;20248;-84
2023/04/08 00:37:24;;;;;;;10.03;6.33;;;5.60;99.90;;;;;;5036180;28;20257;-84
2023/04/08 00:39:52;;;;;;;8.30;5.90;;;5.70;99.90;;;;;;5036008;28;20225;-84
2023/04/08 00:42:20;;;;;;;9.63;6.03;;;5.70;99.90;;;;;;5037300;28;20175;-85
2023/04/08 00:44:46;;;;;;;8.03;6.13;;;5.60;99.90;;;;;;5037304;28;20237;-85
2023/04/08 00:47:13;;;;;;;9.77;6.13;;;5.60;99.90;;;;;;5037180;28;20179;-86
2023/04/08 00:49:39;;;;;;;8.93;6.00;;;5.60;99.90;;;;;;5037022;28;20206;-85
2023/04/08 00:52:05;;;;;;;9.67;6.67;;;5.50;99.90;;;;;;5037066;28;20166;-84
2023/04/08 00:54:30;;;;;;;10.40;6.33;;;5.50;99.90;;;;;;5037006;28;20174;-85
2023/04/08 00:57:00;;;;;;;13.10;6.67;;;5.50;99.90;;;;;;5035943;28;20178;-85
2023/04/08 00:59:28;;;;;;;13.13;7.03;;;5.50;99.90;;;;;;5035780;28;20182;-85
2023/04/08 01:02:26;;;;;;;10.27;6.73;;;5.40;99.90;;;;;;5036920;28;20606;-85
2023/04/08 01:05:05;;;;;;;12.23;6.20;;;5.40;99.90;;;;;;5036821;28;20564;-85
2023/04/08 01:07:36;;;;;;;9.57;6.50;;;5.40;99.90;;;;;;5036984;28;20177;-85
2023/04/08 01:10:14;;;;;;;11.00;6.63;;;5.50;99.90;;;;;;5036761;28;20202;-85
2023/04/08 01:12:53;;;;;;;9.33;6.70;;;5.40;99.90;;;;;;5036826;28;20163;-85
2023/04/08 01:15:19;;;;;;;9.33;6.53;;;5.50;99.90;;;;;;5036736;28;20163;-84
2023/04/08 01:17:47;;;;;;;9.80;6.57;;;5.50;99.90;;;;;;5036805;28;20646;-85
2023/04/08 01:20:13;;;;;;;9.40;6.60;;;5.60;99.90;;;;;;5051982;28;20515;-85
2023/04/08 01:23:07;;;;;;;9.47;6.30;;;5.50;99.90;;;;;;5036456;28;20166;-85
2023/04/08 01:25:35;;;;;;;10.60;6.87;;;5.60;99.90;;;;;;5035275;28;20188;-86
2023/04/08 01:28:12;;;;;;;10.43;6.30;;;5.60;99.90;;;;;;5036448;28;20225;-85
2023/04/08 01:30:39;;;;;;;10.97;6.27;;;5.60;99.90;;;;;;5036369;28;20508;-85
2023/04/08 01:33:06;;;;;;;9.83;6.43;;;5.60;99.90;;;;;;5036396;28;20693;-85
2023/04/08 01:35:32;;;;;;;9.77;6.17;;;5.60;99.90;;;;;;5036297;28;20182;-85
2023/04/08 01:37:59;;;;;;;8.63;6.43;;;5.60;99.90;;;;;;5035028;28;20233;-85
2023/04/08 01:40:25;;;;;;;8.97;6.83;;;5.60;99.90;;;;;;5036245;28;20177;-84
2023/04/08 01:42:54;;;;;;;9.90;6.60;;;5.60;99.90;;;;;;5036247;28;20547;-85
2023/04/08 01:45:22;;;;;;;9.57;6.13;;;5.60;99.90;;;;;;5035571;28;20201;-85
2023/04/08 01:47:49;;;;;;;9.40;6.90;;;5.60;99.90;;;;;;5036089;28;20528;-85
2023/04/08 01:50:16;;;;;;;11.60;6.93;;;5.60;99.90;;;;;;5051422;28;20221;-85
2023/04/08 01:52:48;;;;;;;10.90;7.13;;;5.50;99.90;;;;;;5035990;28;20171;-84
2023/04/08 01:55:14;;;;;;;9.43;6.83;;;5.60;99.90;;;;;;5034914;28;20220;-85
2023/04/08 02:00:14;;;;;;;12.57;7.57;;;5.60;99.90;;;;;;5011931;28;20215;-84
2023/04/08 02:02:41;;;;;;;13.80;7.67;;;5.60;99.90;;;;;;5016121;28;20234;-85
2023/04/08 02:05:07;;;;;;;12.60;7.97;;;5.60;99.90;;;;;;4998933;28;20518;-84
2023/04/08 02:07:33;;;;;;;12.00;7.93;;;5.50;99.90;;;;;;5016088;28;20187;-83
2023/04/08 02:09:59;;;;;;;13.03;7.53;;;5.50;99.90;;;;;;5016045;28;20219;-84
2023/04/08 02:12:26;;;;;;;14.50;8.57;;;5.50;99.90;;;;;;5016098;28;20179;-85
2023/04/08 02:14:53;;;;;;;14.47;8.70;;;5.50;99.90;;;;;;5015734;28;20187;-84
2023/04/08 02:17:32;;;;;;;14.47;8.30;;;5.50;99.90;;;;;;5016085;28;20171;-84
2023/04/08 02:20:20;;;;;;;14.47;8.60;;;5.50;99.90;;;;;;5015906;28;20167;-84
2023/04/08 02:23:08;;;;;;;14.87;8.90;;;5.50;99.90;;;;;;5015926;28;20509;-83
2023/04/08 02:25:39;;;;;;;15.27;7.90;;;5.50;99.90;;;;;;5015403;28;20640;-84
2023/04/08 02:28:08;;;;;;;14.40;8.07;;;5.50;99.90;;;;;;5015417;28;20262;-83
2023/04/08 02:30:35;;;;;;;14.10;7.77;;;5.50;99.90;;;;;;5015674;28;21026;-83
2023/04/08 02:33:04;;;;;;;15.20;8.43;;;5.50;99.90;;;;;;5015559;28;20167;-84
2023/04/08 02:35:31;;;;;;;18.27;9.03;;;5.50;99.90;;;;;;5015828;28;20175;-84
2023/04/08 02:37:56;;;;;;;15.90;9.00;;;5.50;99.90;;;;;;5015516;28;20182;-84
2023/04/08 02:40:26;;;;;;;13.10;8.17;;;5.60;99.90;;;;;;5015454;28;20168;-84
2023/04/08 02:42:53;;;;;;;14.47;8.07;;;5.60;99.90;;;;;;5015353;28;20250;-85
2023/04/08 02:45:20;;;;;;;15.07;8.47;;;5.50;99.90;;;;;;5015439;28;20183;-83
2023/04/08 02:47:46;;;;;;;12.87;8.03;;;5.50;99.90;;;;;;4997733;28;20206;-84
2023/04/08 02:50:12;;;;;;;14.50;8.37;;;5.60;99.90;;;;;;5015399;28;20211;-84
2023/04/08 02:52:38;;;;;;;15.57;8.47;;;5.50;99.90;;;;;;5015065;28;20179;-84
2023/04/08 02:55:08;;;;;;;14.40;8.90;;;5.60;99.90;;;;;;5014726;28;20190;-84
2023/04/08 02:57:38;;;;;;;13.07;8.50;;;5.60;99.90;;;;;;5013779;28;20270;-85
2023/04/08 03:00:04;;;;;;;15.70;9.17;;;5.50;99.90;;;;;;5014731;28;20738;-84
2023/04/08 03:02:30;;;;;;;12.17;8.30;;;5.50;99.90;;;;;;5015191;28;20167;-84
2023/04/08 03:04:56;;;;;;;14.77;8.57;;;5.50;99.90;;;;;;4997459;28;20185;-84
2023/04/08 03:07:21;;;;;;;13.53;8.37;;;5.50;99.90;;;;;;5014058;28;20170;-83
2023/04/08 03:09:47;;;;;;;15.53;8.57;;;5.50;99.90;;;;;;5014725;28;20203;-84
2023/04/08 03:12:13;;;;;;;12.77;8.53;;;5.50;99.90;;;;;;5014854;28;20173;-85
2023/04/08 03:14:38;;;;;;;13.23;8.20;;;5.60;99.90;;;;;;4997017;28;20183;-85
2023/04/08 03:17:04;;;;;;;15.57;8.90;;;5.50;99.90;;;;;;5014839;28;20175;-84
2023/04/08 03:19:29;;;;;;;13.50;9.03;;;5.50;99.90;;;;;;5014520;28;20185;-84
2023/04/08 03:21:55;;;;;;;14.57;8.60;;;5.50;99.90;;;;;;5014381;28;20261;-84
2023/04/08 03:24:21;;;;;;;14.13;8.67;;;5.50;99.90;;;;;;5014083;28;20182;-84
2023/04/08 03:26:46;;;;;;;15.70;7.97;;;5.60;99.90;;;;;;5014606;28;20305;-85
2023/04/08 03:29:12;;;;;;;18.27;9.90;;;5.50;99.90;;;;;;5014234;28;20245;-85
2023/04/08 03:31:40;;;;;;;13.37;8.60;;;5.60;99.90;;;;;;4996968;28;20183;-86
2023/04/08 03:34:06;;;;;;;14.03;8.70;;;5.60;99.90;;;;;;5014648;28;20246;-84
2023/04/08 03:36:31;;;;;;;13.27;8.87;;;5.60;99.90;;;;;;5013515;28;20570;-85
2023/04/08 03:38:57;;;;;;;12.20;8.03;;;5.70;99.90;;;;;;5014277;28;20618;-84
2023/04/08 03:41:23;;;;;;;14.10;8.33;;;5.60;99.90;;;;;;5014298;28;20250;-84
2023/04/08 03:43:48;;;;;;;13.63;8.17;;;5.60;99.90;;;;;;5013129;28;20190;-84
2023/04/08 03:46:14;;;;;;;14.63;9.10;;;5.60;99.90;;;;;;5014513;28;20179;-84
2023/04/08 03:48:40;;;;;;;13.47;8.93;;;5.60;99.90;;;;;;5014390;28;20191;-83
2023/04/08 03:51:07;;;;;;;16.30;8.97;;;5.60;99.90;;;;;;5014285;28;20211;-84
2023/04/08 03:53:32;;;;;;;16.00;9.07;;;5.60;99.90;;;;;;5014315;28;20174;-84
2023/04/08 03:55:58;;;;;;;13.50;8.50;;;5.60;99.90;;;;;;5014274;28;20265;-85
2023/04/08 03:58:24;;;;;;;14.73;9.10;;;5.60;99.90;;;;;;5013770;28;20223;-83
2023/04/08 04:00:50;;;;;;;15.00;9.60;;;5.60;99.90;;;;;;5014112;28;20178;-82
2023/04/08 04:03:16;;;;;;;14.83;8.50;;;5.50;99.90;;;;;;5014241;28;20507;-84
2023/04/08 04:05:41;;;;;;;18.13;10.03;;;5.60;99.90;;;;;;5014082;28;20244;-84
2023/04/08 04:08:08;;;;;;;17.83;10.27;;;5.60;99.90;;;;;;5013818;28;20207;-84
2023/04/08 04:10:34;;;;;;;14.60;9.33;;;5.60;99.90;;;;;;5013930;28;20260;-84
2023/04/08 04:13:00;;;;;;;13.80;8.73;;;5.60;99.90;;;;;;5014026;28;20178;-84
2023/04/08 04:15:26;;;;;;;15.90;9.57;;;5.60;99.90;;;;;;5013718;28;20187;-84
2023/04/08 04:17:52;;;;;;;15.40;9.57;;;5.50;99.90;;;;;;5014152;28;20233;-83
2023/04/08 04:20:18;;;;;;;15.17;9.63;;;5.50;99.90;;;;;;4996138;28;20579;-83
2023/04/08 04:22:44;;;;;;;13.80;9.33;;;5.50;99.90;;;;;;4996445;28;20226;-84
2023/04/08 04:25:10;;;;;;;16.97;10.10;;;5.50;99.90;;;;;;5013600;28;20233;-84
2023/04/08 04:27:35;;;;;;;16.50;9.70;;;5.50;99.90;;;;;;5013917;28;20183;-84
2023/04/08 04:30:02;;;;;;;14.20;9.77;;;5.50;99.90;;;;;;5013542;28;20222;-84
2023/04/08 04:32:29;;;;;;;16.07;9.60;;;5.50;99.90;;;;;;4996138;28;20179;-84
2023/04/08 04:34:54;;;;;;;22.80;10.83;;;5.50;99.90;;;;;;5013930;28;20606;-84
2023/04/08 04:37:20;;;;;;;16.03;9.70;;;5.40;99.90;;;;;;5013893;28;20171;-84
2023/04/08 04:39:46;;;;;;;21.03;9.93;;;5.60;99.90;;;;;;5013792;28;20258;-85
2023/04/08 04:42:12;;;;;;;24.23;10.70;;;5.60;99.90;;;;;;4996219;28;20618;-84
2023/04/08 04:44:37;;;;;;;15.53;9.43;;;5.60;99.90;;;;;;5013584;28;20613;-84
2023/04/08 04:47:03;;;;;;;18.70;10.67;;;5.50;99.90;;;;;;5013754;28;20520;-83
2023/04/08 04:49:29;;;;;;;20.23;10.73;;;5.50;99.90;;;;;;5012438;28;20227;-83
2023/04/08 04:51:54;;;;;;;18.93;11.10;;;5.60;99.90;;;;;;4996014;28;20615;-84
2023/04/08 04:54:20;;;;;;;18.27;10.43;;;5.50;99.90;;;;;;5013645;28;20258;-83
2023/04/08 04:56:46;;;;;;;21.97;10.93;;;5.50;99.90;;;;;;5013743;28;20179;-85
2023/04/08 04:59:11;;;;;;;20.37;11.57;;;5.50;99.90;;;;;;5008652;28;20232;-84
2023/04/08 05:01:39;;;;;;;17.83;10.80;;;5.40;99.90;;;;;;4993636;28;20641;-84
2023/04/08 05:04:06;;;;;;;20.73;11.80;;;5.40;99.90;;;;;;4994298;28;20203;-83
2023/04/08 05:06:32;;;;;;;21.30;11.80;;;5.40;99.90;;;;;;4993845;28;20183;-82
2023/04/08 05:08:57;;;;;;;20.10;11.57;;;5.40;99.90;;;;;;4994076;28;20172;-84
2023/04/08 05:11:23;;;;;;;19.63;11.83;;;5.40;99.90;;;;;;4991203;28;20242;-84
2023/04/08 05:13:49;;;;;;;19.30;10.77;;;5.50;99.90;;;;;;4989336;28;20187;-83
2023/04/08 05:16:15;;;;;;;19.83;11.33;;;5.40;99.90;;;;;;4993765;28;20255;-85
2023/04/08 05:18:41;;;;;;;20.43;11.23;;;5.50;99.90;;;;;;4993058;28;20180;-83
2023/04/08 05:21:07;;;;;;;20.73;11.53;;;5.50;99.90;;;;;;4996181;28;20183;-84
2023/04/08 05:23:34;;;;;;;23.93;11.50;;;5.50;99.90;;;;;;4995761;28;20282;-84
2023/04/08 05:26:00;;;;;;;21.53;11.47;;;5.60;99.90;;;;;;4997247;28;20184;-84
2023/04/08 05:28:26;;;;;;;24.33;11.43;;;5.60;99.90;;;;;;4997262;28;20195;-84
2023/04/08 05:30:52;;;;;;;25.57;13.20;;;5.60;99.90;;;;;;4996631;28;20534;-84
2023/04/08 05:33:19;;;;;;;19.20;10.80;;;5.60;99.90;;;;;;4997117;28;20160;-84
2023/04/08 05:35:45;;;;;;;20.60;12.07;;;5.60;99.90;;;;;;4997085;28;20190;-85
2023/04/08 05:38:10;;;;;;;22.10;11.53;;;5.50;99.90;;;;;;4997341;28;20172;-83
2023/04/08 05:40:36;;;;;;;25.40;12.87;;;5.50;99.90;;;;;;4997050;28;20251;-84
2023/04/08 05:43:02;;;;;;;23.00;12.53;;;5.50;99.90;;;;;;4996939;28;20176;-84
2023/04/08 05:45:28;;;;;;;19.37;11.93;;;5.50;99.90;;;;;;4995715;28;20239;-82
2023/04/08 05:47:53;;;;;;;21.93;12.03;;;5.50;99.90;;;;;;4997148;28;20182;-84
2023/04/08 05:50:19;;;;;;;24.77;12.40;;;5.60;99.90;;;;;;5012015;28;20588;-84
2023/04/08 05:52:45;;;;;;;22.33;12.07;;;5.70;99.90;;;;;;4995572;28;20739;-85
2023/04/08 05:55:12;;;;;;;21.33;12.33;;;5.60;99.90;;;;;;4996992;28;20172;-84
2023/04/08 05:57:37;;;;;;;21.27;12.20;;;5.60;99.90;;;;;;4996905;28;20610;-83
2023/04/08 06:00:08;;;;;;;22.33;12.40;;;5.60;99.90;;;;;;4993676;28;20239;-83
2023/04/08 06:02:35;;;;;;;24.10;13.77;;;5.60;99.90;;;;;;4995316;28;20180;-84
2023/04/08 06:05:01;;;;;;;23.97;13.27;;;5.60;99.90;;;;;;4996693;28;20171;-84
2023/04/08 06:07:27;;;;;;;23.07;13.07;;;5.60;99.90;;;;;;4996663;28;20180;-84
2023/04/08 06:09:53;;;;;;;21.00;12.90;;;5.70;99.90;;;;;;4996576;28;20212;-84
2023/04/08 06:12:18;;;;;;;28.90;12.23;;;5.60;99.90;;;;;;5011347;28;20180;-83
2023/04/08 06:14:44;;;;;;;20.77;12.67;;;5.60;99.90;;;;;;5011277;28;20187;-84
2023/04/08 06:17:10;;;;;;;28.33;13.07;;;5.60;99.90;;;;;;4996424;28;20172;-84
2023/04/08 06:19:35;;;;;;;23.73;11.50;;;5.70;99.90;;;;;;4995040;28;20184;-83
2023/04/08 06:22:01;;;;;;;23.13;13.40;;;5.70;99.90;;;;;;4996186;28;20168;-83
2023/04/08 06:24:28;;;;;;;21.73;13.30;;;5.70;99.90;;;;;;4996378;28;20174;-84
2023/04/08 06:26:55;;;;;;;26.33;14.33;;;5.70;99.90;;;;;;4996262;28;20175;-84
2023/04/08 06:29:21;;;;;;;22.50;14.10;;;5.70;99.90;;;;;;4994389;28;20203;-85
2023/04/08 06:31:48;;;;;;;25.20;14.37;;;5.70;99.90;;;;;;5010996;28;20188;-83
2023/04/08 06:34:13;;;;;;;30.47;15.43;;;5.70;99.90;;;;;;4996052;28;20164;-84
2023/04/08 06:36:39;;;;;;;22.93;13.33;;;5.70;99.90;;;;;;4996068;28;20180;-84
2023/04/08 06:39:05;;;;;;;30.73;15.93;;;5.70;99.90;;;;;;4996082;28;20180;-83
2023/04/08 06:41:32;;;;;;;22.87;13.90;;;5.70;99.90;;;;;;5010868;28;20183;-85
2023/04/08 06:43:58;;;;;;;22.40;13.13;;;5.70;99.90;;;;;;4994496;28;20190;-85
2023/04/08 06:46:24;;;;;;;21.30;13.63;;;5.70;99.90;;;;;;4994504;28;20180;-84
2023/04/08 06:48:50;;;;;;;21.40;14.27;;;5.70;99.90;;;;;;4995750;28;20179;-84
2023/04/08 06:51:15;;;;;;;23.27;13.17;;;5.80;99.90;;;;;;5010626;28;20733;-84
2023/04/08 06:53:41;;;;;;;21.93;13.50;;;5.90;99.90;;;;;;4995683;28;20172;-84
2023/04/08 06:56:07;;;;;;;23.60;13.20;;;5.90;99.90;;;;;;4995760;28;20176;-83
2023/04/08 06:58:32;;;;;;;23.03;14.10;;;5.80;99.90;;;;;;5001456;28;20317;-84
2023/04/08 07:01:00;;;;;;;24.53;13.03;;;5.80;99.90;;;;;;5014733;28;20175;-85
2023/04/08 07:03:27;;;;;;;23.37;13.53;;;5.90;99.90;;;;;;5015120;28;20183;-83
2023/04/08 07:05:52;;;;;;;27.37;14.03;;;5.90;99.90;;;;;;5015460;28;20180;-84
2023/04/08 07:08:18;;;;;;;20.87;13.17;;;5.90;99.90;;;;;;5015060;28;20263;-84
2023/04/08 07:10:44;;;;;;;25.60;13.73;;;5.90;99.90;;;;;;4996897;28;20225;-84
2023/04/08 07:13:10;;;;;;;24.10;13.83;;;5.90;99.90;;;;;;5013629;28;20274;-84
2023/04/08 07:15:36;;;;;;;23.87;13.80;;;5.90;99.90;;;;;;5014692;28;20591;-83
2023/04/08 07:18:03;;;;;;;25.03;13.83;;;5.90;99.90;;;;;;5014890;28;20187;-85
2023/04/08 07:20:29;;;;;;;24.70;13.80;;;5.90;99.90;;;;;;4997058;28;20561;-84
2023/04/08 07:22:56;;;;;;;22.70;12.87;;;5.90;99.90;;;;;;4997050;28;20187;-84
2023/04/08 07:25:21;;;;;;;24.43;14.07;;;6.00;99.90;;;;;;5014561;28;20178;-84
2023/04/08 07:27:47;;;;;;;26.27;12.63;;;6.10;99.90;;;;;;5013563;28;20187;-85
2023/04/08 07:30:13;;;;;;;24.70;12.57;;;6.10;99.90;;;;;;5014194;28;20207;-85
2023/04/08 07:32:39;;;;;;;26.93;13.20;;;6.10;99.90;;;;;;5014594;28;20186;-84
2023/04/08 07:35:05;;;;;;;24.53;13.73;;;6.10;99.90;;;;;;5014798;28;20198;-84
2023/04/08 07:37:30;;;;;;;27.97;15.33;;;6.10;99.90;;;;;;5014582;28;20168;-82
2023/04/08 07:39:56;;;;;;;33.57;16.63;;;6.10;99.90;;;;;;5014468;28;20179;-84
2023/04/08 07:42:22;;;;;;;24.80;14.33;;;6.10;99.90;;;;;;5013896;28;20547;-84
2023/04/08 07:44:48;;;;;;;24.57;13.97;;;6.10;99.90;;;;;;5012895;28;20329;-84
2023/04/08 07:47:13;;;;;;;25.43;14.07;;;6.10;99.90;;;;;;5013210;28;20182;-84
2023/04/08 07:49:39;;;;;;;24.37;13.67;;;6.20;99.90;;;;;;5014260;28;20222;-85
2023/04/08 07:52:05;;;;;;;29.83;14.57;;;6.20;99.90;;;;;;5014387;28;20175;-84
2023/04/08 07:54:33;;;;;;;23.57;13.80;;;6.30;99.90;;;;;;5014266;28;20167;-85
2023/04/08 07:57:00;;;;;;;27.27;14.00;;;6.30;99.90;;;;;;5014525;28;20203;-84
2023/04/08 07:59:26;;;;;;;28.10;14.33;;;6.30;99.90;;;;;;5012483;28;20234;-83
2023/04/08 08:01:51;;;;;;;26.20;14.20;;;6.30;99.90;;;;;;5014041;28;20175;-85
2023/04/08 08:04:17;;;;;;;29.03;15.80;;;6.30;99.90;;;;;;5014098;28;20616;-84
2023/04/08 08:06:43;;;;;;;28.87;15.70;;;6.40;99.90;;;;;;5012990;28;20221;-84
2023/04/08 08:09:08;;;;;;;29.40;14.77;;;6.40;99.90;;;;;;5013861;28;20187;-84
2023/04/08 08:11:34;;;;;;;35.47;18.30;;;6.40;99.90;;;;;;5014000;28;20290;-84
2023/04/08 08:14:01;;;;;;;30.23;16.47;;;6.40;99.90;;;;;;5012704;28;20187;-84
2023/04/08 08:16:28;;;;;;;28.43;15.70;;;6.40;99.90;;;;;;5013742;28;20175;-84
2023/04/08 08:18:53;;;;;;;30.37;16.03;;;6.30;99.90;;;;;;5014071;28;20167;-85
2023/04/08 08:21:19;;;;;;;31.43;15.80;;;6.30;99.90;;;;;;5013830;28;20186;-83
2023/04/08 08:23:45;;;;;;;28.43;16.40;;;6.30;99.90;;;;;;5013672;28;20187;-84
2023/04/08 08:26:10;;;;;;;30.47;17.63;;;6.20;99.90;;;;;;5013928;28;20491;-83
2023/04/08 08:28:37;;;;;;;30.37;15.50;;;6.20;99.90;;;;;;5009238;28;20282;-83
2023/04/08 08:31:04;;;;;;;33.33;16.60;;;6.30;99.90;;;;;;4993797;28;20211;-85
2023/04/08 08:33:30;;;;;;;28.70;15.47;;;6.30;99.90;;;;;;4976826;28;20203;-84
2023/04/08 08:35:57;;;;;;;24.80;13.53;;;6.20;99.90;;;;;;4994202;28;20172;-85
2023/04/08 08:38:23;;;;;;;25.27;14.20;;;6.20;99.90;;;;;;4976802;28;20569;-84
2023/04/08 08:40:59;;;;;;;25.70;14.03;;;6.20;99.90;;;;;;4994059;28;20194;-83
2023/04/08 08:43:26;;;;;;;28.07;14.97;;;6.20;99.90;;;;;;4994078;28;20171;-84
2023/04/08 08:45:53;;;;;;;31.67;15.00;;;6.20;99.90;;;;;;4993938;28;20626;-85
2023/04/08 08:48:19;;;;;;;30.03;13.63;;;6.20;99.90;;;;;;4994176;28;20176;-84
2023/04/08 08:50:45;;;;;;;30.13;15.23;;;6.20;99.90;;;;;;4993576;28;20558;-85
2023/04/08 08:53:11;;;;;;;30.67;15.20;;;6.10;99.90;;;;;;4993947;28;20172;-84
2023/04/08 08:55:38;;;;;;;29.77;14.57;;;6.10;99.90;;;;;;4997609;28;20231;-84
2023/04/08 08:58:04;;;;;;;25.23;13.80;;;6.20;99.90;;;;;;4997882;28;20180;-84
2023/04/08 09:00:35;;;;;;;25.17;13.97;;;6.20;99.90;;;;;;4999612;28;20187;-84
2023/04/08 09:03:21;;;;;;;25.80;13.87;;;6.20;99.90;;;;;;5017403;28;20167;-84
2023/04/08 09:05:52;;;;;;;27.97;14.67;;;6.20;99.90;;;;;;5017174;28;20171;-83
2023/04/08 09:08:50;;;;;;;25.77;13.53;;;6.20;99.90;;;;;;5017165;28;20178;-83
2023/04/08 09:11:22;;;;;;;26.30;13.50;;;6.10;99.90;;;;;;4997482;28;20276;-83
2023/04/08 09:13:48;;;;;;;28.27;13.93;;;6.20;99.90;;;;;;4999546;28;20175;-86
2023/04/08 09:16:18;;;;;;;28.50;13.80;;;6.20;99.90;;;;;;5016916;28;20178;-84
2023/04/08 09:18:47;;;;;;;30.17;14.27;;;6.10;99.90;;;;;;5015791;28;20608;-83
2023/04/08 09:21:14;;;;;;;24.97;14.17;;;6.20;99.90;;;;;;5016964;28;20175;-84
2023/04/08 09:23:46;;;;;;;28.10;13.93;;;6.20;99.90;;;;;;5016713;28;20266;-84
2023/04/08 09:26:17;;;;;;;28.03;15.50;;;6.30;99.90;;;;;;5015652;28;20175;-84
2023/04/08 09:28:56;;;;;;;29.77;15.20;;;6.20;99.90;;;;;;5017002;28;20175;-84
2023/04/08 09:31:27;;;;;;;26.50;14.50;;;6.30;99.90;;;;;;5016872;28;20214;-84
2023/04/08 09:34:10;;;;;;;29.97;14.83;;;6.30;99.90;;;;;;5015571;28;20230;-84
2023/04/08 09:36:36;;;;;;;32.77;15.73;;;6.30;99.90;;;;;;5015758;28;20226;-84
2023/04/08 09:39:02;;;;;;;27.47;14.47;;;6.30;99.90;;;;;;5016670;28;20203;-84
2023/04/08 09:41:34;;;;;;;27.00;14.73;;;6.20;99.90;;;;;;5016558;28;20180;-85
2023/04/08 09:44:03;;;;;;;29.80;14.50;;;6.20;99.90;;;;;;5016641;28;20236;-83
2023/04/08 09:46:40;;;;;;;31.73;15.50;;;6.20;99.90;;;;;;5016420;28;20610;-84
2023/04/08 09:49:26;;;;;;;27.33;14.23;;;6.20;99.90;;;;;;5016412;28;20262;-84
2023/04/08 09:52:29;;;;;;;27.47;14.87;;;6.20;99.90;;;;;;4998613;28;20267;-84
2023/04/08 09:55:03;;;;;;;31.77;15.80;;;6.30;99.90;;;;;;5003996;28;20591;-83
2023/04/08 09:57:51;;;;;;;30.93;14.97;;;6.30;99.90;;;;;;5016397;28;20314;-84
2023/04/08 10:00:18;;;;;;;28.93;14.63;;;6.30;99.90;;;;;;5015582;28;20634;-84
2023/04/08 10:03:22;;;;;;;27.87;13.83;;;6.30;99.90;;;;;;4998583;28;20182;-85
2023/04/08 10:05:48;;;;;;;25.77;14.20;;;6.20;99.90;;;;;;4974476;28;20184;-84
2023/04/08 10:08:14;;;;;;;29.03;13.43;;;6.30;99.90;;;;;;4974955;28;20677;-84
2023/04/08 10:10:41;;;;;;;28.73;13.60;;;6.30;99.90;;;;;;4994198;28;20246;-84
2023/04/08 10:13:07;;;;;;;27.93;13.70;;;6.30;99.90;;;;;;5016105;28;20234;-84
2023/04/08 10:15:35;;;;;;;31.67;14.07;;;6.40;99.90;;;;;;5015498;28;20178;-84
2023/04/08 10:18:04;;;;;;;28.33;13.97;;;6.40;99.90;;;;;;4998361;28;20218;-84
2023/04/08 10:20:33;;;;;;;29.90;14.83;;;6.40;99.90;;;;;;5015620;28;20598;-84
2023/04/08 10:22:59;;;;;;;25.40;13.30;;;6.40;99.90;;;;;;4998150;28;20180;-84
2023/04/08 10:25:35;;;;;;;29.57;14.40;;;6.40;99.90;;;;;;5015737;28;20254;-83
2023/04/08 10:28:21;;;;;;;32.83;14.60;;;6.50;99.90;;;;;;5015879;28;20163;-83
2023/04/08 10:30:51;;;;;;;26.37;13.77;;;6.50;99.90;;;;;;5015098;28;20210;-82
2023/04/08 10:33:21;;;;;;;26.43;12.90;;;6.50;99.90;;;;;;5015427;28;20717;-83
2023/04/08 10:35:58;;;;;;;26.13;12.83;;;6.60;99.90;;;;;;4998000;28;20497;-82
2023/04/08 10:38:24;;;;;;;26.03;14.10;;;6.50;99.90;;;;;;5015685;28;20174;-83
2023/04/08 10:40:50;;;;;;;26.73;13.73;;;6.50;99.90;;;;;;5015436;28;20179;-84
2023/04/08 10:43:16;;;;;;;28.17;14.90;;;6.50;99.90;;;;;;4997756;28;20303;-84
2023/04/08 10:45:45;;;;;;;28.57;13.60;;;6.50;99.90;;;;;;5015144;28;20215;-84
2023/04/08 10:48:23;;;;;;;32.23;15.43;;;6.50;99.90;;;;;;5015348;28;20155;-84
2023/04/08 10:50:54;;;;;;;28.60;14.60;;;6.60;99.90;;;;;;5015046;28;20281;-83
2023/04/08 10:53:27;;;;;;;31.37;14.30;;;6.50;99.90;;;;;;5015203;28;20253;-84
2023/04/08 10:55:53;;;;;;;28.73;15.03;;;6.60;99.90;;;;;;5015301;28;20230;-84
2023/04/08 10:58:19;;;;;;;34.33;15.13;;;6.50;99.90;;;;;;5014851;28;20219;-84
2023/04/08 11:00:45;;;;;;;31.37;15.53;;;6.60;99.90;;;;;;5014667;28;20175;-84
2023/04/08 11:03:11;;;;;;;31.00;14.47;;;6.60;99.90;;;;;;5015417;28;20238;-84
2023/04/08 11:05:38;;;;;;;28.97;13.80;;;6.50;99.90;;;;;;5015231;28;20234;-84
2023/04/08 11:08:05;;;;;;;27.00;13.70;;;6.50;99.90;;;;;;5015083;28;20595;-83
2023/04/08 11:10:38;;;;;;;29.03;13.83;;;6.40;99.90;;;;;;5014623;28;20637;-83
2023/04/08 11:13:07;;;;;;;27.87;13.73;;;6.50;99.90;;;;;;5014876;28;20172;-84
2023/04/08 11:15:35;;;;;;;28.17;13.77;;;6.40;99.90;;;;;;5013511;28;20215;-84
2023/04/08 11:18:03;;;;;;;30.33;12.63;;;6.40;99.90;;;;;;5014052;28;20175;-84
2023/04/08 11:20:30;;;;;;;26.97;12.00;;;6.50;99.90;;;;;;4996966;28;20183;-84
2023/04/08 11:22:56;;;;;;;26.03;13.03;;;6.50;99.90;;;;;;5013478;28;20210;-84
2023/04/08 11:25:23;;;;;;;21.37;11.37;;;6.50;99.90;;;;;;5014342;28;20606;-83
2023/04/08 11:27:49;;;;;;;23.13;11.87;;;6.60;99.90;;;;;;5013428;28;20179;-84
2023/04/08 11:30:15;;;;;;;25.30;12.53;;;6.70;99.90;;;;;;5014100;28;20679;-80
2023/04/08 11:32:41;;;;;;;25.23;13.60;;;6.70;99.90;;;;;;5014763;28;20171;-84
2023/04/08 11:35:07;;;;;;;25.23;11.87;;;6.80;99.90;;;;;;5014640;28;20187;-84
2023/04/08 11:37:40;;;;;;;26.33;13.10;;;6.80;99.90;;;;;;5014907;28;20171;-85
2023/04/08 11:40:10;;;;;;;22.40;11.93;;;6.90;99.90;;;;;;5014465;28;20190;-84
2023/04/08 11:42:36;;;;;;;20.87;11.53;;;6.80;99.90;;;;;;5014343;28;20213;-84
2023/04/08 11:45:12;;;;;;;25.13;12.30;;;6.90;99.90;;;;;;5013190;28;20266;-84
2023/04/08 11:47:38;;;;;;;21.17;11.20;;;6.90;99.90;;;;;;5014247;28;20183;-83
2023/04/08 11:50:05;;;;;;;21.97;11.67;;;7.00;99.90;;;;;;5014111;28;20272;-83
2023/04/08 11:52:48;;;;;;;21.03;11.27;;;7.00;99.90;;;;;;5013001;28;20203;-84
2023/04/08 11:55:25;;;;;;;24.87;11.63;;;7.10;99.90;;;;;;5014348;28;20179;-84
2023/04/08 11:57:52;;;;;;;18.70;9.93;;;7.20;99.90;;;;;;5013011;28;20171;-84
2023/04/08 12:00:18;;;;;;;22.57;12.10;;;7.20;99.90;;;;;;5013693;28;20291;-84
2023/04/08 12:02:46;;;;;;;15.90;9.93;;;7.20;99.90;;;;;;5014031;28;20254;-85
2023/04/08 12:05:16;;;;;;;17.97;9.53;;;7.30;99.90;;;;;;5014277;28;20214;-83
2023/04/08 12:07:42;;;;;;;18.53;9.93;;;7.50;99.90;;;;;;5013043;28;20175;-85
2023/04/08 12:10:12;;;;;;;19.17;10.80;;;7.50;99.90;;;;;;5013995;28;20199;-85
2023/04/08 12:12:39;;;;;;;19.57;11.10;;;7.50;99.90;;;;;;5013896;28;20167;-84
2023/04/08 12:15:07;;;;;;;26.07;13.10;;;7.50;99.90;;;;;;5012682;28;20209;-84
2023/04/08 12:17:33;;;;;;;26.63;13.13;;;7.30;99.90;;;;;;5012838;28;20194;-84
2023/04/08 12:19:59;;;;;;;19.13;10.90;;;7.40;99.90;;;;;;5012793;28;20183;-84
2023/04/08 12:22:25;;;;;;;22.53;10.60;;;7.40;99.90;;;;;;5014035;28;20182;-83
2023/04/08 12:24:50;;;;;;;22.10;11.17;;;7.40;99.90;;;;;;5013793;28;20175;-84
2023/04/08 12:27:16;;;;;;;20.27;11.17;;;7.40;99.90;;;;;;5013978;28;20195;-84
2023/04/08 12:29:42;;;;;;;21.30;11.70;;;7.50;99.90;;;;;;4999996;28;20683;-84
2023/04/08 12:32:08;;;;;;;21.57;11.60;;;7.60;99.90;;;;;;4999930;28;20636;-84
2023/04/08 12:34:34;;;;;;;20.43;12.23;;;7.50;99.90;;;;;;5017785;28;20598;-84
2023/04/08 12:36:59;;;;;;;22.17;11.47;;;7.50;99.90;;;;;;5017933;28;20179;-83
2023/04/08 12:39:25;;;;;;;19.70;11.00;;;7.60;99.90;;;;;;5017834;28;20167;-83
2023/04/08 12:41:51;;;;;;;21.67;11.40;;;7.60;99.90;;;;;;5017583;28;20494;-82
2023/04/08 12:44:17;;;;;;;21.60;11.00;;;7.70;99.90;;;;;;5017651;28;20614;-84
2023/04/08 12:46:43;;;;;;;24.13;12.60;;;7.80;99.90;;;;;;5016269;28;20230;-84